createdAt,value
2023-04-05T00:01:12.479Z,1.00
2023-04-05T00:03:42.758Z,0.90
2023-04-05T00:06:13.438Z,0.90
2023-04-05T00:08:41.874Z,0.80
2023-04-05T00:11:10.068Z,0.80
2023-04-05T00:13:38.454Z,0.70
2023-04-05T00:16:07.875Z,0.70
2023-04-05T00:18:38.381Z,0.60
2023-04-05T00:21:08.057Z,0.60
2023-04-05T00:23:38.648Z,0.50
2023-04-05T00:26:07.090Z,0.40
2023-04-05T00:28:36.128Z,0.40
2023-04-05T00:31:04.639Z,0.40
2023-04-05T00:33:32.755Z,0.30
2023-04-05T00:36:11.735Z,0.30
2023-04-05T00:38:40.237Z,0.30
2023-04-05T00:41:08.368Z,0.30
2023-04-05T00:43:36.962Z,0.30
2023-04-05T00:46:06.236Z,0.30
2023-04-05T00:48:34.572Z,0.40
2023-04-05T00:51:03.013Z,0.40
2023-04-05T00:53:33.092Z,0.40
2023-04-05T00:56:02.144Z,0.50
2023-04-05T00:58:30.237Z,0.50
2023-04-05T01:01:05.459Z,0.60
2023-04-05T01:03:35.767Z,0.60
2023-04-05T01:06:16.212Z,0.60
2023-04-05T01:08:56.313Z,0.60
2023-04-05T01:11:26.509Z,0.50
2023-04-05T01:13:59.809Z,0.40
2023-04-05T01:16:28.373Z,0.40
2023-04-05T01:18:57.671Z,0.40
2023-04-05T01:21:50.153Z,0.30
2023-04-05T01:24:38.747Z,0.30
2023-04-05T01:27:11.527Z,0.20
2023-04-05T01:30:06.347Z,0.20
2023-04-05T01:32:51.053Z,0.10
2023-04-05T01:35:26.232Z,0.10
2023-04-05T01:38:01.112Z,0.00
2023-04-05T01:40:29.502Z,0.00
2023-04-05T01:42:57.744Z,0.00
2023-04-05T01:45:27.329Z,0.00
2023-04-05T01:47:55.368Z,0.00
2023-04-05T01:50:23.437Z,-0.10
2023-04-05T01:52:51.401Z,-0.20
2023-04-05T01:55:19.403Z,-0.20
2023-04-05T01:57:47.377Z,-0.20
2023-04-05T02:00:15.714Z,-0.20
2023-04-05T02:02:45.339Z,-0.20
2023-04-05T02:05:13.390Z,-0.30
2023-04-05T02:07:41.514Z,-0.30
2023-04-05T02:10:10.458Z,-0.30
2023-04-05T02:12:38.653Z,-0.30
2023-04-05T02:15:08.054Z,-0.30
2023-04-05T02:17:39.503Z,-0.30
2023-04-05T02:20:12.450Z,-0.30
2023-04-05T02:22:41.177Z,-0.30
2023-04-05T02:25:10.100Z,-0.30
2023-04-05T02:27:38.230Z,-0.30
2023-04-05T02:30:07.740Z,-0.30
2023-04-05T02:32:36.172Z,-0.30
2023-04-05T02:35:04.432Z,-0.40
2023-04-05T02:37:33.807Z,-0.40
2023-04-05T02:40:01.836Z,-0.40
2023-04-05T02:42:29.836Z,-0.40
2023-04-05T02:44:57.860Z,-0.40
2023-04-05T02:47:25.919Z,-0.40
2023-04-05T02:49:53.889Z,-0.40
2023-04-05T02:52:22.284Z,-0.40
2023-04-05T02:54:51.817Z,-0.40
2023-04-05T02:57:19.853Z,-0.50
2023-04-05T02:59:47.877Z,-0.50
2023-04-05T03:02:16.271Z,-0.40
2023-04-05T03:04:44.969Z,-0.40
2023-04-05T03:07:18.692Z,-0.30
2023-04-05T03:09:47.569Z,-0.30
2023-04-05T03:12:17.084Z,-0.30
2023-04-05T03:14:46.214Z,-0.20
2023-04-05T03:17:14.452Z,-0.10
2023-04-05T03:19:42.689Z,-0.10
2023-04-05T03:22:10.703Z,-0.10
2023-04-05T03:24:38.873Z,-0.10
2023-04-05T03:27:07.556Z,-0.10
2023-04-05T03:29:37.053Z,-0.10
2023-04-05T03:32:05.300Z,-0.10
2023-04-05T03:34:33.321Z,-0.10
2023-04-05T03:37:01.272Z,-0.10
2023-04-05T03:39:29.520Z,-0.10
2023-04-05T03:41:57.608Z,-0.10
2023-04-05T03:44:25.766Z,-0.10
2023-04-05T03:46:55.592Z,-0.20
2023-04-05T03:49:23.778Z,-0.20
2023-04-05T03:51:51.833Z,-0.20
2023-04-05T03:54:19.846Z,-0.10
2023-04-05T03:56:48.087Z,-0.10
2023-04-05T03:59:16.276Z,0.00
2023-04-05T04:01:44.852Z,0.00
2023-04-05T04:04:14.234Z,0.10
2023-04-05T04:06:42.952Z,0.10
2023-04-05T04:09:11.164Z,0.10
2023-04-05T04:11:39.210Z,0.20
2023-04-05T04:14:07.177Z,0.20
2023-04-05T04:16:35.555Z,0.20
2023-04-05T04:19:03.591Z,0.20
2023-04-05T04:21:35.687Z,0.20
2023-04-05T04:24:04.190Z,0.10
2023-04-05T04:26:37.670Z,0.10
2023-04-05T04:29:06.743Z,0.10
2023-04-05T04:31:35.046Z,0.10
2023-04-05T04:34:03.360Z,0.00
2023-04-05T04:36:39.218Z,0.00
2023-04-05T04:39:07.261Z,0.00
2023-04-05T04:41:35.911Z,0.00
2023-04-05T04:44:04.524Z,0.00
2023-04-05T04:46:42.968Z,0.00
2023-04-05T04:49:11.412Z,0.00
2023-04-05T04:51:41.268Z,0.00
2023-04-05T04:54:09.380Z,0.00
2023-04-05T04:56:37.553Z,0.10
2023-04-05T04:59:05.792Z,0.10
2023-04-05T05:01:34.200Z,0.10
2023-04-05T05:04:03.993Z,0.10
2023-04-05T05:06:32.045Z,0.10
2023-04-05T05:09:01.466Z,0.20
2023-04-05T05:11:29.492Z,0.10
2023-04-05T05:13:57.601Z,0.10
2023-04-05T05:16:26.823Z,0.10
2023-04-05T05:18:55.221Z,0.10
2023-04-05T05:21:23.187Z,0.10
2023-04-05T05:23:51.609Z,0.20
2023-04-05T05:26:21.248Z,0.20
2023-04-05T05:28:50.046Z,0.20
2023-04-05T05:31:19.503Z,0.20
2023-04-05T05:33:50.013Z,0.20
2023-04-05T05:36:19.907Z,0.20
2023-04-05T05:38:49.176Z,0.20
2023-04-05T05:41:17.232Z,0.20
2023-04-05T05:43:46.653Z,0.30
2023-04-05T05:46:14.751Z,0.30
2023-04-05T05:48:43.029Z,0.30
2023-04-05T05:51:11.085Z,0.30
2023-04-05T05:53:39.791Z,0.40
2023-04-05T05:56:08.283Z,0.40
2023-04-05T05:58:36.970Z,0.50
2023-04-05T06:01:07.764Z,0.50
2023-04-05T06:03:35.910Z,0.50
2023-04-05T06:06:06.032Z,0.60
2023-04-05T06:08:34.018Z,0.60
2023-04-05T06:11:02.055Z,0.70
2023-04-05T06:13:30.107Z,0.70
2023-04-05T06:15:58.361Z,0.70
2023-04-05T06:18:27.763Z,0.80
2023-04-05T06:20:56.673Z,0.80
2023-04-05T06:23:24.631Z,0.80
2023-04-05T06:25:52.752Z,0.80
2023-04-05T06:28:20.917Z,0.90
2023-04-05T06:30:48.865Z,1.00
2023-04-05T06:33:16.881Z,1.00
2023-04-05T06:35:47.569Z,1.00
2023-04-05T06:38:15.559Z,1.00
2023-04-05T06:40:43.848Z,1.10
2023-04-05T06:43:12.194Z,1.10
2023-04-05T06:45:40.342Z,1.10
2023-04-05T06:48:08.783Z,1.20
2023-04-05T06:50:36.791Z,1.20
2023-04-05T06:53:06.328Z,1.30
2023-04-05T06:55:34.900Z,1.30
2023-04-05T06:58:03.123Z,1.30
2023-04-05T07:00:31.066Z,1.40
2023-04-05T07:02:59.120Z,1.40
2023-04-05T07:05:27.201Z,1.50
2023-04-05T07:07:55.174Z,1.50
2023-04-05T07:10:24.519Z,1.50
2023-04-05T07:12:52.745Z,1.60
2023-04-05T07:15:20.792Z,1.60
2023-04-05T07:17:49.024Z,1.70
2023-04-05T07:20:17.314Z,1.80
2023-04-05T07:22:45.332Z,1.90
2023-04-05T07:25:13.338Z,2.00
2023-04-05T07:27:42.702Z,2.00
2023-04-05T07:30:11.537Z,2.10
2023-04-05T07:32:39.642Z,2.10
2023-04-05T07:35:08.630Z,2.20
2023-04-05T07:37:37.226Z,2.20
2023-04-05T07:40:06.416Z,2.30
2023-04-05T07:42:34.667Z,2.40
2023-04-05T07:45:04.307Z,2.40
2023-04-05T07:47:34.680Z,2.50
2023-04-05T07:50:02.807Z,2.50
2023-04-05T07:52:30.922Z,2.60
2023-04-05T07:54:58.872Z,2.60
2023-04-05T07:57:27.452Z,2.70
2023-04-05T07:59:56.937Z,2.80
2023-04-05T08:02:26.387Z,2.80
2023-04-05T08:04:54.580Z,2.90
2023-04-05T08:07:23.652Z,3.00
2023-04-05T08:09:51.646Z,3.00
2023-04-05T08:12:19.782Z,3.00
2023-04-05T08:14:47.807Z,3.00
2023-04-05T08:17:16.497Z,3.00
2023-04-05T08:19:45.870Z,2.90
2023-04-05T08:22:14.091Z,2.90
2023-04-05T08:24:42.221Z,2.90
2023-04-05T08:27:10.416Z,2.90
2023-04-05T08:29:39.788Z,2.90
2023-04-05T08:32:08.981Z,2.90
2023-04-05T08:34:37.424Z,2.80
2023-04-05T08:37:06.893Z,2.80
2023-04-05T08:39:36.520Z,2.80
2023-04-05T08:42:09.922Z,2.80
2023-04-05T08:44:39.183Z,2.90
2023-04-05T08:47:07.393Z,3.00
2023-04-05T08:49:35.368Z,3.10
2023-04-05T08:52:04.261Z,3.30
2023-04-05T08:54:33.680Z,3.40
2023-04-05T08:57:04.106Z,3.50
2023-04-05T08:59:35.158Z,3.60
2023-04-05T09:02:05.338Z,3.70
2023-04-05T09:04:38.442Z,3.80
2023-04-05T09:07:08.864Z,3.90
2023-04-05T09:09:40.456Z,4.20
2023-04-05T09:12:09.589Z,4.20
2023-04-05T09:14:38.943Z,4.40
2023-04-05T09:17:07.915Z,4.50
2023-04-05T09:19:36.183Z,4.60
2023-04-05T09:22:05.853Z,4.80
2023-04-05T09:24:35.526Z,4.90
2023-04-05T09:27:09.132Z,5.00
2023-04-05T09:29:37.732Z,5.10
2023-04-05T09:32:06.772Z,5.10
2023-04-05T09:34:36.870Z,5.20
2023-04-05T09:37:12.665Z,5.40
2023-04-05T09:39:40.665Z,5.30
2023-04-05T09:42:11.958Z,5.30
2023-04-05T09:44:57.157Z,5.40
2023-04-05T09:47:30.928Z,5.50
2023-04-05T09:49:59.079Z,5.50
2023-04-05T09:52:28.903Z,5.60
2023-04-05T09:54:58.526Z,5.60
2023-04-05T09:57:29.578Z,5.60
2023-04-05T09:59:57.817Z,6.00
2023-04-05T10:02:27.279Z,6.50
2023-04-05T10:04:55.332Z,6.90
2023-04-05T10:07:23.574Z,7.10
2023-04-05T10:09:51.522Z,7.20
2023-04-05T10:12:27.887Z,7.30
2023-04-05T10:14:57.952Z,7.30
2023-04-05T10:17:29.550Z,7.20
2023-04-05T10:20:09.127Z,6.90
2023-04-05T10:22:41.621Z,6.70
2023-04-05T10:25:19.586Z,6.60
2023-04-05T10:27:51.493Z,6.60
2023-04-05T10:30:21.003Z,6.80
2023-04-05T10:33:00.741Z,7.00
2023-04-05T10:35:35.517Z,7.00
2023-04-05T10:38:18.688Z,7.00
2023-04-05T10:40:49.255Z,7.10
2023-04-05T10:43:22.061Z,7.50
2023-04-05T10:45:54.295Z,7.90
2023-04-05T10:48:34.774Z,8.40
2023-04-05T10:51:03.808Z,8.90
2023-04-05T10:53:33.655Z,9.40
2023-04-05T10:56:03.162Z,9.80
2023-04-05T10:58:32.337Z,10.20
2023-04-05T11:01:04.338Z,10.60
2023-04-05T11:03:52.518Z,11.00
2023-04-05T11:06:25.610Z,11.50
2023-04-05T11:08:56.297Z,11.80
2023-04-05T11:11:26.562Z,12.10
2023-04-05T11:13:55.879Z,12.20
2023-04-05T11:16:39.756Z,11.90
2023-04-05T11:19:07.788Z,11.50
2023-04-05T11:21:35.761Z,11.00
2023-04-05T11:24:07.620Z,10.50
2023-04-05T11:26:54.919Z,10.20
2023-04-05T11:29:50.989Z,10.00
2023-04-05T11:32:20.510Z,9.70
2023-04-05T11:35:00.459Z,9.40
2023-04-05T11:38:06.132Z,9.10
2023-04-05T11:40:35.362Z,9.00
2023-04-05T11:43:05.997Z,8.90
2023-04-05T11:45:35.405Z,8.90
2023-04-05T11:48:08.169Z,8.90
2023-04-05T11:50:38.285Z,8.80
2023-04-05T11:53:11.132Z,8.80
2023-04-05T11:55:39.710Z,8.80
2023-04-05T11:58:15.148Z,8.70
2023-04-05T12:00:43.277Z,8.70
2023-04-05T12:03:16.494Z,8.70
2023-04-05T12:05:49.658Z,8.80
2023-04-05T12:08:18.162Z,8.80
2023-04-05T12:10:46.847Z,8.70
2023-04-05T12:13:14.988Z,8.70
2023-04-05T12:15:43.132Z,8.70
2023-04-05T12:18:16.533Z,8.80
2023-04-05T12:20:45.653Z,8.80
2023-04-05T12:23:13.888Z,8.70
2023-04-05T12:25:42.939Z,8.70
2023-04-05T12:28:12.296Z,8.50
2023-04-05T12:30:50.595Z,8.50
2023-04-05T12:33:29.287Z,8.40
2023-04-05T12:35:57.624Z,8.50
2023-04-05T12:38:28.456Z,8.50
2023-04-05T12:41:00.397Z,8.60
2023-04-05T12:43:38.713Z,8.60
2023-04-05T12:46:10.556Z,8.60
2023-04-05T12:48:40.092Z,8.70
2023-04-05T12:51:17.177Z,8.70
2023-04-05T12:53:48.650Z,8.70
2023-04-05T12:56:17.588Z,8.60
2023-04-05T12:58:49.733Z,8.60
2023-04-05T13:01:17.918Z,8.70
2023-04-05T13:03:49.651Z,8.70
2023-04-05T13:06:18.182Z,8.70
2023-04-05T13:08:46.586Z,8.60
2023-04-05T13:11:14.544Z,8.60
2023-04-05T13:13:42.643Z,8.60
2023-04-05T13:16:10.747Z,8.60
2023-04-05T13:18:39.226Z,8.60
2023-04-05T13:21:10.135Z,8.60
2023-04-05T13:23:39.356Z,8.60
2023-04-05T13:26:08.486Z,8.60
2023-04-05T13:28:36.677Z,8.60
2023-04-05T13:31:06.567Z,8.50
2023-04-05T13:33:34.894Z,8.50
2023-04-05T13:36:02.951Z,8.40
2023-04-05T13:38:32.293Z,8.40
2023-04-05T13:41:00.563Z,8.30
2023-04-05T13:43:28.650Z,8.30
2023-04-05T13:45:56.653Z,8.20
2023-04-05T13:48:24.650Z,8.30
2023-04-05T13:50:52.707Z,8.00
2023-04-05T13:53:20.701Z,7.90
2023-04-05T13:55:50.165Z,7.80
2023-04-05T13:58:18.689Z,7.80
2023-04-05T14:00:47.344Z,7.70
2023-04-05T14:03:15.685Z,7.70
2023-04-05T14:05:43.780Z,7.60
2023-04-05T14:08:11.774Z,7.50
2023-04-05T14:10:39.832Z,7.50
2023-04-05T14:13:09.392Z,7.50
2023-04-05T14:15:37.414Z,7.40
2023-04-05T14:18:05.965Z,7.40
2023-04-05T14:20:34.121Z,7.40
2023-04-05T14:23:02.436Z,7.40
2023-04-05T14:25:30.624Z,7.30
2023-04-05T14:27:58.633Z,7.30
2023-04-05T14:30:28.044Z,7.40
2023-04-05T14:32:56.135Z,7.30
2023-04-05T14:35:24.219Z,7.20
2023-04-05T14:37:52.595Z,7.20
2023-04-05T14:40:20.642Z,7.10
2023-04-05T14:42:50.062Z,7.10
2023-04-05T14:45:18.773Z,7.10
2023-04-05T14:47:48.216Z,7.10
2023-04-05T14:50:16.433Z,7.20
2023-04-05T14:52:45.478Z,7.20
2023-04-05T14:55:14.096Z,7.10
2023-04-05T14:57:42.342Z,7.10
2023-04-05T15:00:12.267Z,7.00
2023-04-05T15:02:40.442Z,7.00
2023-04-05T15:05:11.460Z,7.00
2023-04-05T15:07:39.461Z,7.00
2023-04-05T15:10:08.198Z,7.00
2023-04-05T15:12:36.199Z,7.10
2023-04-05T15:15:04.176Z,7.20
2023-04-05T15:17:32.280Z,7.30
2023-04-05T15:20:00.356Z,7.40
2023-04-05T15:22:30.008Z,7.30
2023-04-05T15:24:59.930Z,7.30
2023-04-05T15:27:27.901Z,7.30
2023-04-05T15:29:55.883Z,7.40
2023-04-05T15:32:24.064Z,7.50
2023-04-05T15:34:52.019Z,7.60
2023-04-05T15:37:20.182Z,7.70
2023-04-05T15:39:49.499Z,7.70
2023-04-05T15:42:18.656Z,7.70
2023-04-05T15:44:46.624Z,7.80
2023-04-05T15:47:14.679Z,7.80
2023-04-05T15:49:43.449Z,7.80
2023-04-05T15:52:11.931Z,7.70
2023-04-05T15:54:40.121Z,7.60
2023-04-05T15:57:09.592Z,7.60
2023-04-05T15:59:37.763Z,7.50
2023-04-05T16:02:06.270Z,7.40
2023-04-05T16:04:34.363Z,7.30
2023-04-05T16:07:02.369Z,7.20
2023-04-05T16:09:30.540Z,7.10
2023-04-05T16:11:59.396Z,7.10
2023-04-05T16:14:29.094Z,7.00
2023-04-05T16:16:57.211Z,7.00
2023-04-05T16:19:25.428Z,6.80
2023-04-05T16:21:53.744Z,6.80
2023-04-05T16:24:21.674Z,6.70
2023-04-05T16:26:49.832Z,6.80
2023-04-05T16:29:17.805Z,6.60
2023-04-05T16:31:47.972Z,6.50
2023-04-05T16:34:16.152Z,6.50
2023-04-05T16:36:44.338Z,6.40
2023-04-05T16:39:12.289Z,6.40
2023-04-05T16:41:40.437Z,6.40
2023-04-05T16:44:08.396Z,6.40
2023-04-05T16:46:36.542Z,6.30
2023-04-05T16:49:06.157Z,6.30
2023-04-05T16:51:35.678Z,6.30
2023-04-05T16:54:03.903Z,6.30
2023-04-05T16:56:31.920Z,6.30
2023-04-05T16:58:59.957Z,6.20
2023-04-05T17:01:28.826Z,6.30
2023-04-05T17:03:59.777Z,6.30
2023-04-05T17:06:29.572Z,6.20
2023-04-05T17:08:57.715Z,6.10
2023-04-05T17:11:28.497Z,6.10
2023-04-05T17:13:57.618Z,6.00
2023-04-05T17:16:26.021Z,5.90
2023-04-05T17:18:54.269Z,5.70
2023-04-05T17:21:22.950Z,5.60
2023-04-05T17:23:52.379Z,5.60
2023-04-05T17:26:20.547Z,5.50
2023-04-05T17:28:48.536Z,5.40
2023-04-05T17:31:16.974Z,5.40
2023-04-05T17:33:47.742Z,5.30
2023-04-05T17:36:17.920Z,5.30
2023-04-05T17:38:46.073Z,5.30
2023-04-05T17:41:15.479Z,5.30
2023-04-05T17:43:43.607Z,5.30
2023-04-05T17:46:13.902Z,5.30
2023-04-05T17:48:42.180Z,5.30
2023-04-05T17:51:10.426Z,5.20
2023-04-05T17:53:38.627Z,5.20
2023-04-05T17:56:06.866Z,5.20
2023-04-05T17:58:36.397Z,5.10
2023-04-05T18:01:04.611Z,5.00
2023-04-05T18:03:32.770Z,5.10
2023-04-05T18:06:00.874Z,5.10
2023-04-05T18:08:29.299Z,5.10
2023-04-05T18:10:58.358Z,5.00
2023-04-05T18:13:27.404Z,5.00
2023-04-05T18:15:57.434Z,5.00
2023-04-05T18:18:26.521Z,4.90
2023-04-05T18:20:55.487Z,4.90
2023-04-05T18:23:25.100Z,4.90
2023-04-05T18:25:54.436Z,4.90
2023-04-05T18:28:23.771Z,4.90
2023-04-05T18:30:51.913Z,4.90
2023-04-05T18:33:22.517Z,4.90
2023-04-05T18:35:51.535Z,4.90
2023-04-05T18:38:19.875Z,4.90
2023-04-05T18:40:47.887Z,4.80
2023-04-05T18:43:15.945Z,4.80
2023-04-05T18:45:44.090Z,4.80
2023-04-05T18:48:12.532Z,4.80
2023-04-05T18:50:41.984Z,4.80
2023-04-05T18:53:10.196Z,4.70
2023-04-05T18:55:38.348Z,4.70
2023-04-05T18:58:06.406Z,4.70
2023-04-05T19:00:35.012Z,4.60
2023-04-05T19:03:03.190Z,4.60
2023-04-05T19:05:31.500Z,4.60
2023-04-05T19:08:00.942Z,4.60
2023-04-05T19:10:29.099Z,4.70
2023-04-05T19:12:57.197Z,4.60
2023-04-05T19:15:25.345Z,4.60
2023-04-05T19:17:53.448Z,4.60
2023-04-05T19:20:21.428Z,4.60
2023-04-05T19:22:49.395Z,4.60
2023-04-05T19:25:18.789Z,4.60
2023-04-05T19:27:46.922Z,4.60
2023-04-05T19:30:15.063Z,4.60
2023-04-05T19:32:43.048Z,4.50
2023-04-05T19:35:11.611Z,4.50
2023-04-05T19:37:39.785Z,4.40
2023-04-05T19:40:09.242Z,4.40
2023-04-05T19:42:38.905Z,4.30
2023-04-05T19:45:09.307Z,4.30
2023-04-05T19:47:43.091Z,4.30
2023-04-05T19:50:56.467Z,4.30
2023-04-05T19:53:43.851Z,4.20
2023-04-05T19:56:15.228Z,4.20
2023-04-05T19:58:45.011Z,4.20
2023-04-05T20:01:18.894Z,4.20
2023-04-05T20:03:47.383Z,4.20
2023-04-05T20:06:17.044Z,4.20
2023-04-05T20:08:46.735Z,4.20
2023-04-05T20:11:16.541Z,4.20
2023-04-05T20:13:49.100Z,4.20
2023-04-05T20:16:18.372Z,4.20
2023-04-05T20:18:47.936Z,4.20
2023-04-05T20:21:16.656Z,4.20
2023-04-05T20:23:45.447Z,4.20
2023-04-05T20:26:14.774Z,4.10
2023-04-05T20:28:44.647Z,4.10
2023-04-05T20:31:19.958Z,4.10
2023-04-05T20:33:49.798Z,4.10
2023-04-05T20:36:20.015Z,4.10
2023-04-05T20:38:49.365Z,4.10
2023-04-05T20:41:19.808Z,4.00
2023-04-05T20:43:48.361Z,4.00
2023-04-05T20:46:17.890Z,4.00
2023-04-05T20:48:46.830Z,4.00
2023-04-05T20:51:15.796Z,3.90
2023-04-05T20:53:44.363Z,3.90
2023-04-05T20:56:13.526Z,3.90
2023-04-05T20:58:42.123Z,3.80
2023-04-05T21:01:11.210Z,3.80
2023-04-05T21:03:42.556Z,3.70
2023-04-05T21:06:11.447Z,3.60
2023-04-05T21:08:40.453Z,3.60
2023-04-05T21:11:10.824Z,3.50
2023-04-05T21:13:39.172Z,3.40
2023-04-05T21:16:07.828Z,3.40
2023-04-05T21:18:36.254Z,3.30
2023-04-05T21:21:06.258Z,3.40
2023-04-05T21:23:34.829Z,3.20
2023-04-05T21:26:04.244Z,3.20
2023-04-05T21:28:32.635Z,3.10
2023-04-05T21:31:01.043Z,3.00
2023-04-05T21:33:29.138Z,3.00
2023-04-05T21:35:57.333Z,2.90
2023-04-05T21:38:27.208Z,2.80
2023-04-05T21:40:55.767Z,2.90
2023-04-05T21:43:24.032Z,2.70
2023-04-05T21:45:53.174Z,2.70
2023-04-05T21:48:21.256Z,2.60
2023-04-05T21:50:49.252Z,2.60
2023-04-05T21:53:17.201Z,2.50
2023-04-05T21:55:46.551Z,2.50
2023-04-05T21:58:14.490Z,2.40
2023-04-05T22:00:42.523Z,2.30
2023-04-05T22:03:10.809Z,2.30
2023-04-05T22:05:39.198Z,2.30
2023-04-05T22:08:07.902Z,2.20
2023-04-05T22:10:37.829Z,2.20
2023-04-05T22:13:07.400Z,2.10
2023-04-05T22:15:35.456Z,2.10
2023-04-05T22:18:04.031Z,2.10
2023-04-05T22:20:32.277Z,2.00
2023-04-05T22:23:00.224Z,2.00
2023-04-05T22:25:28.280Z,2.00
2023-04-05T22:28:00.101Z,1.90
2023-04-05T22:30:40.946Z,1.90
2023-04-05T22:33:12.639Z,1.90
2023-04-05T22:35:41.094Z,1.80
2023-04-05T22:38:09.518Z,1.80
2023-04-05T22:40:37.484Z,1.80
2023-04-05T22:43:05.398Z,1.70
2023-04-05T22:45:34.869Z,1.70
2023-04-05T22:48:03.050Z,1.70
2023-04-05T22:50:31.367Z,1.70
2023-04-05T22:52:59.415Z,1.60
2023-04-05T22:55:27.451Z,1.60
2023-04-05T22:57:55.488Z,1.60
2023-04-05T23:00:23.457Z,1.50
2023-04-05T23:02:52.886Z,1.50
2023-04-05T23:05:21.092Z,1.50
2023-04-05T23:07:49.159Z,1.50
2023-04-05T23:10:17.422Z,1.50
2023-04-05T23:12:46.403Z,1.40
2023-04-05T23:15:15.155Z,1.40
2023-04-05T23:17:43.214Z,1.30
2023-04-05T23:20:13.046Z,1.30
2023-04-05T23:22:41.097Z,1.30
2023-04-05T23:25:10.285Z,1.30
2023-04-05T23:27:38.414Z,1.20
2023-04-05T23:30:07.920Z,1.20
2023-04-05T23:32:35.950Z,1.20
2023-04-05T23:35:04.008Z,1.20
2023-04-05T23:37:33.342Z,1.20
2023-04-05T23:40:01.449Z,1.20
2023-04-05T23:42:29.383Z,1.10
2023-04-05T23:44:57.384Z,1.00
2023-04-05T23:47:25.402Z,1.00
2023-04-05T23:49:53.402Z,0.90
2023-04-05T23:52:21.347Z,0.90
2023-04-05T23:54:50.695Z,0.80
2023-04-05T23:57:18.647Z,0.80
2023-04-05T23:59:46.625Z,0.70
